createdAt,value
2018-09-14T00:03:25.330Z,5.37
2018-09-14T00:08:29.985Z,5.40
2018-09-14T00:13:34.520Z,5.80
2018-09-14T00:18:39.641Z,5.40
2018-09-14T00:23:44.419Z,5.83
2018-09-14T00:28:48.838Z,5.37
2018-09-14T00:33:53.377Z,6.05
2018-09-14T00:38:57.893Z,6.33
2018-09-14T00:44:03.765Z,6.90
2018-09-14T00:49:08.388Z,6.35
2018-09-14T00:54:12.845Z,6.12
2018-09-14T00:59:17.400Z,6.22
2018-09-14T01:04:22.647Z,7.05
2018-09-14T01:09:29.586Z,6.05
2018-09-14T01:14:34.050Z,7.03
2018-09-14T01:19:38.544Z,7.83
2018-09-14T01:24:43.207Z,7.28
2018-09-14T01:29:47.695Z,7.87
2018-09-14T01:34:52.154Z,8.03
2018-09-14T01:39:57.536Z,7.10
2018-09-14T01:45:02.166Z,7.70
2018-09-14T01:50:07.529Z,6.95
2018-09-14T01:55:12.165Z,7.35
2018-09-14T02:00:16.729Z,6.92
2018-09-14T02:05:21.829Z,7.47
2018-09-14T02:10:26.488Z,7.15
2018-09-14T02:15:31.116Z,6.85
2018-09-14T02:20:35.632Z,6.90
2018-09-14T02:25:40.076Z,6.95
2018-09-14T02:30:44.691Z,6.78
2018-09-14T02:35:49.272Z,6.75
2018-09-14T02:40:53.825Z,6.58
2018-09-14T02:45:58.554Z,6.40
2018-09-14T02:51:03.013Z,6.78
2018-09-14T02:56:07.639Z,7.30
2018-09-14T03:01:12.133Z,7.45
2018-09-14T03:06:17.020Z,8.68
2018-09-14T03:11:21.622Z,7.17
2018-09-14T03:16:26.251Z,6.80
2018-09-14T03:21:30.688Z,7.30
2018-09-14T03:26:35.324Z,6.58
2018-09-14T03:31:39.949Z,7.17
2018-09-14T03:36:44.360Z,5.70
2018-09-14T03:41:49.314Z,7.40
2018-09-14T03:46:53.892Z,7.00
2018-09-14T03:51:58.448Z,6.53
2018-09-14T03:57:05.540Z,6.35
2018-09-14T04:02:09.884Z,5.92
2018-09-14T04:07:14.445Z,6.90
2018-09-14T04:12:19.432Z,6.37
2018-09-14T04:17:24.011Z,6.37
2018-09-14T04:22:28.458Z,6.47
2018-09-14T04:27:32.991Z,7.05
2018-09-14T04:32:37.492Z,7.35
2018-09-14T04:37:41.920Z,6.80
2018-09-14T04:42:46.339Z,6.97
2018-09-14T04:47:50.925Z,6.72
2018-09-14T04:52:55.574Z,6.40
2018-09-14T04:58:00.903Z,6.95
2018-09-14T05:03:06.643Z,6.53
2018-09-14T05:08:11.190Z,6.33
2018-09-14T05:13:15.896Z,6.70
2018-09-14T05:18:21.912Z,5.97
2018-09-14T05:23:29.249Z,6.67
2018-09-14T05:28:34.186Z,5.97
2018-09-14T05:33:38.701Z,5.50
2018-09-14T05:38:46.325Z,6.28
2018-09-14T05:43:50.881Z,6.10
2018-09-14T05:48:55.811Z,5.92
2018-09-14T05:54:00.282Z,5.12
2018-09-14T05:59:05.189Z,6.53
2018-09-14T06:04:09.682Z,6.53
2018-09-14T06:09:14.327Z,5.80
2018-09-14T06:14:18.778Z,6.72
2018-09-14T06:19:23.348Z,6.10
2018-09-14T06:24:27.869Z,6.53
2018-09-14T06:29:32.490Z,5.22
2018-09-14T06:34:37.063Z,5.92
2018-09-14T06:39:42.795Z,5.72
2018-09-14T06:44:47.194Z,5.83
2018-09-14T06:49:51.691Z,5.78
2018-09-14T06:54:56.367Z,5.70
2018-09-14T07:00:01.750Z,5.40
2018-09-14T07:05:07.119Z,5.22
2018-09-14T07:10:11.681Z,12.53
2018-09-14T07:15:16.682Z,4.75
2018-09-14T07:20:21.272Z,5.35
2018-09-14T07:25:26.881Z,4.92
2018-09-14T07:30:31.508Z,5.33
2018-09-14T07:35:36.537Z,4.87
2018-09-14T07:40:41.115Z,4.22
2018-09-14T07:45:45.589Z,4.50
2018-09-14T07:50:51.235Z,4.20
2018-09-14T07:55:55.822Z,3.80
2018-09-14T08:01:00.249Z,3.70
2018-09-14T08:06:05.680Z,3.50
2018-09-14T08:11:10.141Z,4.45
2018-09-14T08:16:15.853Z,3.27
2018-09-14T08:21:20.564Z,4.35
2018-09-14T08:26:24.932Z,5.22
2018-09-14T08:31:29.301Z,4.37
2018-09-14T08:36:34.225Z,4.62
2018-09-14T08:41:39.043Z,4.75
2018-09-14T08:46:43.526Z,5.12
2018-09-14T08:51:47.989Z,5.08
2018-09-14T08:56:52.602Z,4.20
2018-09-14T09:01:57.194Z,4.25
2018-09-14T09:07:01.798Z,3.60
2018-09-14T09:12:06.378Z,4.17
2018-09-14T09:17:11.011Z,3.37
2018-09-14T09:22:15.894Z,4.33
2018-09-14T09:27:20.326Z,2.83
2018-09-14T09:32:25.417Z,2.98
2018-09-14T09:42:12.660Z,2.62
2018-09-14T09:47:23.979Z,2.95
2018-09-14T09:52:29.213Z,3.40
2018-09-14T09:57:34.039Z,3.20
2018-09-14T10:02:43.783Z,3.22
2018-09-14T10:07:49.356Z,4.42
2018-09-14T10:12:54.126Z,3.22
2018-09-14T10:17:58.646Z,3.20
2018-09-14T10:23:03.227Z,2.87
2018-09-14T10:28:07.873Z,3.08
2018-09-14T10:33:13.104Z,5.58
2018-09-14T10:38:18.925Z,2.45
2018-09-14T10:43:23.678Z,2.42
2018-09-14T10:48:28.647Z,2.67
2018-09-14T10:53:34.076Z,2.45
2018-09-14T10:58:44.080Z,2.50
2018-09-14T11:03:48.639Z,3.25
2018-09-14T11:08:52.880Z,2.90
2018-09-14T11:13:58.010Z,3.02
2018-09-14T11:19:02.364Z,3.00
2018-09-14T11:24:07.963Z,2.77
2018-09-14T11:29:13.058Z,2.80
2018-09-14T11:34:17.749Z,2.40
2018-09-14T11:39:24.240Z,2.67
2018-09-14T11:44:28.932Z,2.45
2018-09-14T11:49:33.442Z,2.05
2018-09-14T11:54:37.780Z,2.30
2018-09-14T11:59:42.333Z,2.60
2018-09-14T12:04:46.797Z,2.87
2018-09-14T12:09:52.025Z,2.30
2018-09-14T12:14:57.574Z,2.20
2018-09-14T12:20:02.092Z,2.35
2018-09-14T12:25:07.317Z,2.30
2018-09-14T12:30:11.713Z,2.45
2018-09-14T12:35:16.978Z,2.40
2018-09-14T12:40:21.521Z,2.50
2018-09-14T12:45:27.124Z,2.30
2018-09-14T12:50:31.680Z,2.30
2018-09-14T12:55:37.758Z,2.15
2018-09-14T13:00:42.497Z,1.42
2018-09-14T13:05:46.790Z,1.62
2018-09-14T13:10:51.302Z,1.62
2018-09-14T13:15:56.239Z,1.42
2018-09-14T13:21:00.906Z,1.42
2018-09-14T13:26:05.976Z,1.10
2018-09-14T13:31:11.067Z,1.30
2018-09-14T13:36:16.845Z,1.15
2018-09-14T13:41:21.320Z,0.98
2018-09-14T13:46:25.993Z,1.22
2018-09-14T13:51:30.467Z,1.27
2018-09-14T13:56:35.752Z,1.30
2018-09-14T14:06:57.976Z,1.40
2018-09-14T14:12:05.133Z,1.80
2018-09-14T14:17:10.483Z,1.20
2018-09-14T14:22:15.556Z,1.30
2018-09-14T14:27:20.530Z,1.82
2018-09-14T14:32:25.123Z,1.62
2018-09-14T14:37:29.662Z,1.90
2018-09-14T14:42:35.278Z,2.27
2018-09-14T14:47:39.614Z,1.40
2018-09-14T14:52:44.185Z,1.40
2018-09-14T14:57:49.519Z,1.85
2018-09-14T15:02:54.100Z,1.50
2018-09-14T15:07:59.245Z,1.70
2018-09-14T15:13:04.342Z,1.75
2018-09-14T15:18:08.741Z,1.72
2018-09-14T15:23:14.315Z,1.50
2018-09-14T15:28:20.752Z,1.67
2018-09-14T15:33:25.390Z,1.60
2018-09-14T15:38:30.067Z,1.40
2018-09-14T15:43:35.214Z,1.80
2018-09-14T15:48:39.888Z,1.60
2018-09-14T15:53:44.631Z,1.57
2018-09-14T15:58:49.867Z,1.72
2018-09-14T16:03:54.893Z,1.92
2018-09-14T16:08:59.563Z,1.70
2018-09-14T16:14:04.886Z,1.50
2018-09-14T16:19:09.291Z,1.70
2018-09-14T16:24:16.179Z,1.50
2018-09-14T16:29:20.775Z,1.77
2018-09-14T16:34:25.381Z,1.62
2018-09-14T16:39:30.623Z,1.80
2018-09-14T16:44:35.362Z,1.60
2018-09-14T16:49:43.035Z,1.70
2018-09-14T16:55:00.640Z,2.40
2018-09-14T17:00:09.028Z,1.52
2018-09-14T17:05:13.600Z,2.60
2018-09-14T17:10:18.221Z,1.80
2018-09-14T17:15:22.902Z,1.60
2018-09-14T17:20:28.727Z,1.42
2018-09-14T17:25:33.314Z,2.45
2018-09-14T17:30:37.863Z,2.20
2018-09-14T17:35:42.545Z,1.85
2018-09-14T17:40:47.377Z,2.02
2018-09-14T17:45:51.879Z,2.90
2018-09-14T17:50:56.761Z,2.00
2018-09-14T17:56:01.299Z,2.42
2018-09-14T18:01:06.238Z,2.25
2018-09-14T18:06:10.824Z,2.08
2018-09-14T18:11:15.875Z,3.42
2018-09-14T18:16:20.662Z,2.20
2018-09-14T18:21:25.897Z,2.27
2018-09-14T18:26:31.047Z,1.98
2018-09-14T18:37:06.598Z,2.08
2018-09-14T18:42:57.848Z,2.10
2018-09-14T18:48:07.019Z,2.12
2018-09-14T18:53:11.874Z,3.08
2018-09-14T18:58:17.534Z,2.72
2018-09-14T19:03:22.277Z,3.15
2018-09-14T19:08:27.421Z,6.90
2018-09-14T19:13:32.115Z,4.47
2018-09-14T19:18:36.737Z,3.02
2018-09-14T19:23:41.338Z,2.62
2018-09-14T19:28:46.590Z,3.67
2018-09-14T19:33:51.550Z,3.00
2018-09-14T19:38:56.643Z,4.22
2018-09-14T19:44:01.627Z,4.50
2018-09-14T19:49:10.710Z,4.25
2018-09-14T19:54:16.975Z,2.90
2018-09-14T19:59:22.325Z,3.60
2018-09-14T20:04:27.136Z,4.05
2018-09-14T20:20:45.997Z,4.40
2018-09-14T20:25:54.032Z,3.52
2018-09-14T20:30:58.779Z,4.03
2018-09-14T20:36:03.415Z,4.05
2018-09-14T20:41:08.608Z,4.45
2018-09-14T20:46:13.849Z,4.17
2018-09-14T20:51:19.594Z,4.50
2018-09-14T20:56:25.804Z,5.17
2018-09-14T21:01:34.424Z,6.35
2018-09-14T21:06:39.481Z,5.20
2018-09-14T21:11:49.556Z,5.25
2018-09-14T21:16:54.800Z,5.10
2018-09-14T21:22:00.704Z,6.35
2018-09-14T21:27:05.415Z,5.55
2018-09-14T21:32:10.788Z,5.22
2018-09-14T21:37:15.398Z,6.15
2018-09-14T21:42:19.986Z,5.53
2018-09-14T21:47:24.559Z,5.65
2018-09-14T21:52:29.601Z,5.85
2018-09-14T21:57:34.220Z,5.62
2018-09-14T22:02:38.821Z,5.92
2018-09-14T22:07:44.127Z,5.97
2018-09-14T22:12:49.053Z,6.10
2018-09-14T22:17:54.138Z,5.60
2018-09-14T22:22:58.827Z,5.95
2018-09-14T22:28:03.475Z,5.40
2018-09-14T22:33:08.193Z,5.70
2018-09-14T22:38:12.874Z,5.92
2018-09-14T22:43:17.859Z,6.37
2018-09-14T22:48:22.587Z,5.80
2018-09-14T22:53:27.799Z,5.80
2018-09-14T22:58:32.163Z,5.95
2018-09-14T23:03:37.327Z,6.35
2018-09-14T23:08:41.962Z,6.15
2018-09-14T23:13:46.898Z,6.10
2018-09-14T23:18:51.560Z,5.78
2018-09-14T23:23:56.282Z,5.55
2018-09-14T23:29:01.588Z,5.20
2018-09-14T23:34:06.255Z,5.97
2018-09-14T23:39:11.866Z,5.78
2018-09-14T23:44:16.288Z,5.83
2018-09-14T23:49:20.711Z,7.53
2018-09-14T23:54:25.306Z,6.80
2018-09-14T23:59:30.453Z,6.03
